Time;durP1;ratioP1;P1;durP2;ratioP2;P2;SDS_P1;SDS_P2;PMS_P1;PMS_P2;Temp;Humidity;BMP_temperature;BMP_pressure;BME280_temperature;BME280_humidity;BME280_pressure;Samples;Min_cycle;Max_cycle;Signal;HPM_P1;HPM_P2
2023/08/17 00:00:58;;;;;;;1.48;1.23;;;;;;;21.02;74.15;102119.28;6074039;29;20233;-67
2023/08/17 00:04:19;;;;;;;1.00;0.88;;;;;;;20.98;74.66;102115.16;6068744;29;20331;-67
2023/08/17 00:07:40;;;;;;;1.40;1.30;;;;;;;21.01;74.52;102118.41;6052662;29;20902;-66
2023/08/17 00:11:02;;;;;;;3.20;1.45;;;;;;;21.00;74.13;102103.00;6071686;29;20248;-66
2023/08/17 00:14:23;;;;;;;2.55;1.33;;;;;;;21.01;74.39;102106.56;6074629;29;20228;-66
2023/08/17 00:17:44;;;;;;;0.75;0.75;;;;;;;20.86;74.79;102111.91;6079391;29;20244;-67
2023/08/17 00:21:05;;;;;;;3.05;1.70;;;;;;;20.87;74.66;102113.63;6074550;29;20241;-67
2023/08/17 00:24:26;;;;;;;3.65;0.95;;;;;;;20.96;74.77;102111.75;6071680;29;20229;-67
2023/08/17 00:27:48;;;;;;;0.90;0.80;;;;;;;20.91;74.78;102109.50;6070569;29;20240;-66
2023/08/17 00:31:11;;;;;;;1.95;1.05;;;;;;;20.97;74.91;102107.97;6079281;29;20260;-67
2023/08/17 00:34:32;;;;;;;1.70;1.30;;;;;;;20.91;74.93;102106.78;6078440;29;20229;-67
2023/08/17 00:37:54;;;;;;;3.50;1.45;;;;;;;20.95;74.75;102099.91;6057107;29;20229;-67
2023/08/17 00:41:15;;;;;;;1.58;1.25;;;;;;;20.96;75.11;102095.28;6059794;29;20253;-67
2023/08/17 00:44:37;;;;;;;1.45;1.20;;;;;;;20.89;74.94;102073.19;6072066;29;20236;-67
2023/08/17 00:47:59;;;;;;;3.60;1.88;;;;;;;20.75;75.44;102073.03;6067250;29;20323;-67
2023/08/17 00:51:20;;;;;;;2.28;1.63;;;;;;;20.60;75.99;102067.41;6074728;29;20343;-66
2023/08/17 00:54:41;;;;;;;2.45;1.10;;;;;;;20.49;75.88;102065.84;6053473;29;20236;-67
2023/08/17 00:58:02;;;;;;;5.88;1.55;;;;;;;20.57;76.04;102071.34;6057133;29;20228;-67
2023/08/17 01:01:25;;;;;;;2.47;1.08;;;;;;;20.75;76.01;102067.56;6074252;29;20240;-66
2023/08/17 01:04:46;;;;;;;5.78;1.85;;;;;;;20.73;75.89;102064.13;6063060;29;20239;-67
2023/08/17 01:08:07;;;;;;;1.50;1.25;;;;;;;20.57;75.63;102063.13;6031436;29;20705;-66
2023/08/17 01:11:35;;;;;;;4.85;1.27;;;;;;;20.57;76.00;102054.03;6068462;29;20237;-67
2023/08/17 01:15:05;;;;;;;2.03;1.10;;;;;;;20.46;75.76;102049.75;6082216;29;20241;-67
2023/08/17 01:18:32;;;;;;;1.60;1.45;;;;;;;20.76;75.66;102059.16;6073074;29;20696;-68
2023/08/17 01:21:56;;;;;;;1.40;1.15;;;;;;;20.51;75.34;102052.84;6076883;29;20248;-67
2023/08/17 01:25:18;;;;;;;5.15;1.70;;;;;;;20.63;75.34;102053.38;6060465;29;20232;-67
2023/08/17 01:28:39;;;;;;;2.28;0.90;;;;;;;20.70;75.03;102055.22;6067566;29;20240;-67
2023/08/17 01:32:09;;;;;;;1.88;1.30;;;;;;;20.70;74.78;102066.19;6048497;29;20327;-67
2023/08/17 01:35:38;;;;;;;1.90;1.80;;;;;;;20.58;74.85;102070.31;6056642;29;20236;-67
2023/08/17 01:39:01;;;;;;;3.75;1.50;;;;;;;20.73;74.81;102072.34;6061757;29;20232;-66
2023/08/17 01:42:24;;;;;;;3.40;1.70;;;;;;;20.67;74.74;102071.19;6075286;29;20516;-66
2023/08/17 01:45:45;;;;;;;2.45;1.92;;;;;;;20.63;74.74;102073.38;6071194;29;20626;-67
2023/08/17 01:49:06;;;;;;;2.28;0.90;;;;;;;20.75;74.76;102076.66;6065076;29;20236;-67
2023/08/17 01:52:28;;;;;;;12.48;2.03;;;;;;;20.84;74.51;102074.75;6057088;29;20255;-66
2023/08/17 01:55:49;;;;;;;8.98;1.75;;;;;;;20.76;74.68;102067.38;6069169;29;20237;-67
2023/08/17 01:59:12;;;;;;;1.88;1.00;;;;;;;20.70;74.59;102077.16;6047809;29;20233;-65
2023/08/17 02:02:33;;;;;;;3.72;1.75;;;;;;;20.62;75.25;102076.31;6074617;29;20547;-67
2023/08/17 02:05:56;;;;;;;3.35;1.50;;;;;;;20.50;75.33;102091.38;6061206;29;20535;-66
2023/08/17 02:09:17;;;;;;;2.33;1.45;;;;;;;20.52;75.31;102095.69;6060466;29;20240;-67
2023/08/17 02:12:38;;;;;;;1.10;1.10;;;;;;;20.45;75.27;102088.28;6066233;29;20236;-66
2023/08/17 02:16:00;;;;;;;1.20;1.10;;;;;;;20.53;75.76;102083.66;6059447;29;20225;-66
2023/08/17 02:19:21;;;;;;;2.10;1.67;;;;;;;20.51;75.19;102063.81;6067248;29;20234;-66
2023/08/17 02:22:43;;;;;;;3.42;1.33;;;;;;;20.43;75.88;102060.22;6055216;29;20240;-66
2023/08/17 02:26:03;;;;;;;3.10;1.10;;;;;;;20.48;75.77;102058.69;6063912;29;20626;-67
2023/08/17 02:29:26;;;;;;;4.20;1.10;;;;;;;20.38;76.02;102062.63;6060196;29;20712;-67
2023/08/17 02:32:48;;;;;;;1.50;1.10;;;;;;;20.41;75.87;102057.66;6051551;29;20236;-66
2023/08/17 02:36:09;;;;;;;1.23;0.98;;;;;;;20.35;76.25;102062.94;6062105;29;20233;-67
2023/08/17 02:39:30;;;;;;;2.17;1.20;;;;;;;20.31;76.48;102058.84;6059650;29;20225;-68
2023/08/17 02:42:51;;;;;;;1.27;1.10;;;;;;;20.30;76.66;102062.59;6057967;29;20247;-67
2023/08/17 02:46:12;;;;;;;3.50;1.67;;;;;;;20.20;76.86;102065.50;6072304;29;20236;-66
2023/08/17 02:49:35;;;;;;;2.22;0.85;;;;;;;20.39;76.92;102067.06;6051921;29;20607;-67
2023/08/17 02:52:56;;;;;;;1.40;1.25;;;;;;;20.29;77.16;102056.28;6066994;29;20240;-67
2023/08/17 02:56:17;;;;;;;3.13;1.02;;;;;;;20.34;76.92;102055.78;6074848;29;20614;-67
2023/08/17 02:59:38;;;;;;;2.45;1.13;;;;;;;20.27;77.57;102052.00;6050482;29;20232;-67
2023/08/17 03:02:59;;;;;;;3.88;1.27;;;;;;;20.25;77.59;102040.34;6050972;29;20248;-66
2023/08/17 03:06:22;;;;;;;2.15;1.15;;;;;;;20.32;78.06;102035.88;6076027;29;20240;-66
2023/08/17 03:09:42;;;;;;;3.55;1.45;;;;;;;20.21;78.03;102048.06;6066698;29;20228;-67
2023/08/17 03:13:04;;;;;;;2.65;1.10;;;;;;;20.28;77.84;102040.84;6074762;29;20247;-67
2023/08/17 03:16:25;;;;;;;1.20;0.85;;;;;;;20.22;78.21;102047.03;6051948;29;20232;-67
2023/08/17 03:19:46;;;;;;;0.85;0.85;;;;;;;20.16;78.57;102046.81;6048621;29;20228;-67
2023/08/17 03:23:08;;;;;;;1.27;0.98;;;;;;;20.12;78.70;102056.38;6063833;29;20240;-67
2023/08/17 03:26:29;;;;;;;0.82;0.82;;;;;;;19.93;79.44;102058.41;6057902;29;20264;-67
2023/08/17 03:29:50;;;;;;;4.93;4.07;;;;;;;20.09;79.39;102056.75;6051552;29;20232;-67
2023/08/17 03:33:11;;;;;;;1.20;1.10;;;;;;;20.10;79.19;102053.81;6061769;29;20248;-67
2023/08/17 03:36:32;;;;;;;1.08;1.05;;;;;;;20.14;79.62;102059.81;6073465;29;20240;-67
2023/08/17 03:39:54;;;;;;;6.60;1.70;;;;;;;20.13;79.71;102061.69;6055944;29;20260;-67
2023/08/17 03:43:15;;;;;;;1.17;1.00;;;;;;;20.16;79.73;102063.22;6069766;29;21237;-67
2023/08/17 03:46:37;;;;;;;1.13;1.02;;;;;;;20.26;79.60;102061.22;6069751;29;20564;-67
2023/08/17 03:49:59;;;;;;;1.45;1.08;;;;;;;20.21;79.41;102064.50;6056734;29;20233;-66
2023/08/17 03:53:20;;;;;;;1.08;0.98;;;;;;;20.22;79.40;102060.72;6072584;29;20245;-66
2023/08/17 03:56:42;;;;;;;2.50;1.08;;;;;;;20.21;79.60;102049.94;6067825;29;20304;-67
2023/08/17 04:00:05;;;;;;;1.80;1.00;;;;;;;20.10;79.85;102056.56;6068677;29;20312;-66
2023/08/17 04:03:34;;;;;;;4.78;1.52;;;;;;;20.16;79.63;102055.88;6069501;29;20236;-66
2023/08/17 04:06:55;;;;;;;7.18;3.10;;;;;;;20.21;79.79;102053.53;6068589;29;20236;-66
2023/08/17 04:10:16;;;;;;;5.50;3.75;;;;;;;20.30;79.45;102046.16;6038621;29;22158;-67
2023/08/17 04:13:38;;;;;;;4.50;2.65;;;;;;;20.52;79.26;102053.72;6067878;29;20237;-67
2023/08/17 04:16:59;;;;;;;1.25;1.15;;;;;;;20.36;78.98;102056.47;6073825;29;20955;-67
2023/08/17 04:20:20;;;;;;;1.15;1.05;;;;;;;20.26;79.25;102062.09;6059635;29;20237;-66
2023/08/17 04:23:41;;;;;;;5.03;2.55;;;;;;;20.18;79.69;102062.06;6072115;29;20279;-66
2023/08/17 04:27:02;;;;;;;1.80;1.40;;;;;;;20.26;79.74;102072.19;6067649;29;20228;-68
2023/08/17 04:30:24;;;;;;;3.05;1.25;;;;;;;20.19;79.97;102074.72;6065402;29;20244;-66
2023/08/17 04:33:52;;;;;;;1.13;1.02;;;;;;;20.30;79.89;102073.53;6051712;29;20235;-67
2023/08/17 04:37:13;;;;;;;3.55;1.35;;;;;;;20.24;79.89;102082.44;6083002;29;20240;-67
2023/08/17 04:40:34;;;;;;;1.10;1.00;;;;;;;20.38;79.60;102084.53;6072999;29;20768;-65
2023/08/17 04:43:55;;;;;;;1.02;1.02;;;;;;;20.33;79.84;102087.78;6052131;29;20522;-68
2023/08/17 04:47:18;;;;;;;1.95;1.15;;;;;;;20.22;80.08;102082.63;6083132;29;20243;-67
2023/08/17 04:50:39;;;;;;;6.20;1.65;;;;;;;20.18;80.43;102092.16;6067761;29;20405;-67
2023/08/17 04:54:01;;;;;;;1.58;1.10;;;;;;;20.12;80.85;102092.00;6065596;29;20236;-67
2023/08/17 04:57:21;;;;;;;1.65;1.08;;;;;;;20.07;80.84;102087.00;6068591;29;20245;-68
2023/08/17 05:00:43;;;;;;;2.70;1.55;;;;;;;20.22;81.19;102092.72;6071693;29;20714;-67
2023/08/17 05:04:06;;;;;;;1.45;1.08;;;;;;;20.22;80.97;102096.31;6075003;29;20233;-66
2023/08/17 05:07:27;;;;;;;1.60;1.17;;;;;;;20.14;81.66;102103.63;6075993;29;20233;-67
2023/08/17 05:10:49;;;;;;;2.53;1.30;;;;;;;20.14;81.98;102100.88;6061863;29;20599;-66
2023/08/17 05:14:11;;;;;;;1.88;1.30;;;;;;;20.33;81.85;102103.34;6061277;29;20316;-67
2023/08/17 05:17:32;;;;;;;1.42;1.33;;;;;;;20.54;81.13;102106.47;6071779;29;20618;-69
2023/08/17 05:20:55;;;;;;;2.60;1.65;;;;;;;20.47;80.57;102109.00;6059559;29;20240;-68
2023/08/17 05:24:15;;;;;;;7.78;2.55;;;;;;;20.86;80.16;102114.66;6063497;29;20319;-68
2023/08/17 05:27:36;;;;;;;6.28;2.42;;;;;;;21.13;80.14;102121.69;6076652;29;20228;-68
2023/08/17 05:31:04;;;;;;;1.77;1.58;;;;;;;21.05;78.62;102129.94;6060493;29;20240;-70
2023/08/17 05:34:25;;;;;;;1.48;1.30;;;;;;;20.57;79.09;102128.88;6063162;29;20236;-69
2023/08/17 05:37:47;;;;;;;2.30;1.40;;;;;;;20.59;80.68;102137.78;6049352;29;20561;-69
2023/08/17 05:41:08;;;;;;;4.40;1.48;;;;;;;20.88;80.56;102140.00;6065007;29;20225;-67
2023/08/17 05:44:29;;;;;;;1.77;1.20;;;;;;;21.28;79.87;102142.72;6078172;29;20282;-68
2023/08/17 05:47:50;;;;;;;1.92;1.45;;;;;;;21.10;79.33;102141.22;6060757;29;21099;-68
2023/08/17 05:51:11;;;;;;;2.25;1.20;;;;;;;21.00;80.04;102143.28;6082560;29;20769;-69
2023/08/17 05:54:33;;;;;;;2.92;2.15;;;;;;;20.76;80.96;102140.56;6053032;29;20256;-68
2023/08/17 05:57:54;;;;;;;4.15;1.63;;;;;;;20.58;82.13;102136.09;6060678;29;20236;-68
2023/08/17 06:01:15;;;;;;;4.68;1.70;;;;;;;20.80;82.44;102129.03;6056664;29;20654;-69
2023/08/17 06:04:36;;;;;;;11.20;2.25;;;;;;;20.60;83.01;102134.03;6069445;29;20229;-68
2023/08/17 06:07:58;;;;;;;2.00;1.08;;;;;;;20.85;83.29;102121.19;6065363;29;20327;-68
2023/08/17 06:11:20;;;;;;;5.50;1.80;;;;;;;20.54;83.94;102125.63;6073396;29;20244;-69
2023/08/17 06:14:42;;;;;;;2.50;1.27;;;;;;;20.90;83.64;102126.16;6064246;29;20229;-67
2023/08/17 06:18:03;;;;;;;3.53;1.92;;;;;;;20.77;83.60;102123.06;6061959;29;20229;-67
2023/08/17 06:21:24;;;;;;;7.32;1.83;;;;;;;20.70;84.01;102126.50;6078684;29;20229;-67
2023/08/17 06:24:44;;;;;;;3.90;3.22;;;;;;;20.50;84.83;102133.34;6080413;29;20500;-68
2023/08/17 06:28:07;;;;;;;5.15;3.55;;;;;;;20.38;85.81;102136.59;6065371;29;20229;-67
2023/08/17 06:31:28;;;;;;;2.40;1.85;;;;;;;20.24;87.05;102134.47;6073799;29;20232;-68
2023/08/17 06:34:49;;;;;;;1.95;1.67;;;;;;;20.44;87.21;102139.47;6055276;29;20248;-68
2023/08/17 06:38:10;;;;;;;4.22;2.42;;;;;;;20.57;87.04;102131.63;6056943;29;20792;-67
2023/08/17 06:41:31;;;;;;;6.65;2.40;;;;;;;20.51;86.43;102140.53;6078227;29;20489;-67
2023/08/17 06:44:53;;;;;;;6.22;1.75;;;;;;;20.48;86.87;102135.41;6055851;29;20235;-68
2023/08/17 06:48:14;;;;;;;3.88;2.42;;;;;;;20.38;87.25;102134.69;6064983;29;20228;-68
2023/08/17 06:51:35;;;;;;;6.47;1.80;;;;;;;20.19;88.02;102143.19;6078884;29;20228;-68
2023/08/17 06:54:56;;;;;;;2.63;2.13;;;;;;;20.07;89.32;102141.78;6068115;29;20647;-68
2023/08/17 06:58:17;;;;;;;1.58;1.48;;;;;;;20.30;89.27;102131.94;6082212;29;20244;-67
2023/08/17 07:01:39;;;;;;;7.13;1.73;;;;;;;20.60;88.63;102127.69;6086356;29;20607;-68
2023/08/17 07:05:00;;;;;;;1.45;1.35;;;;;;;20.21;87.98;102123.88;6065842;29;20684;-68
2023/08/17 07:08:21;;;;;;;3.95;1.70;;;;;;;20.28;87.73;102122.16;6082723;29;20232;-69
2023/08/17 07:11:42;;;;;;;4.32;2.58;;;;;;;20.08;88.56;102127.06;6081342;29;22106;-69
2023/08/17 07:15:04;;;;;;;3.25;1.33;;;;;;;20.31;88.82;102119.97;6068096;29;20312;-68
2023/08/17 07:18:26;;;;;;;1.70;1.25;;;;;;;20.69;87.47;102115.72;6078641;29;20256;-70
2023/08/17 07:21:47;;;;;;;9.02;1.90;;;;;;;20.40;86.43;102116.19;6090312;29;20244;-70
2023/08/17 07:25:09;;;;;;;3.50;2.15;;;;;;;20.04;87.43;102127.56;6057331;29;20290;-69
2023/08/17 07:28:30;;;;;;;3.58;1.50;;;;;;;20.03;87.66;102115.75;6065369;29;20236;-69
2023/08/17 07:31:51;;;;;;;1.63;1.30;;;;;;;20.19;87.84;102115.81;6076524;29;20233;-69
2023/08/17 07:35:13;;;;;;;2.17;1.52;;;;;;;20.19;86.71;102120.44;6065816;29;20228;-70
2023/08/17 07:38:34;;;;;;;4.38;1.20;;;;;;;20.31;86.09;102114.50;6074414;29;20241;-69
2023/08/17 07:41:55;;;;;;;3.33;1.67;;;;;;;20.23;85.79;102127.31;6094408;29;20260;-70
2023/08/17 07:45:16;;;;;;;1.85;1.15;;;;;;;20.32;85.47;102129.88;6082436;29;20236;-70
2023/08/17 07:48:36;;;;;;;4.60;1.55;;;;;;;19.87;85.92;102129.41;6077180;29;20245;-70
2023/08/17 07:51:59;;;;;;;3.35;1.30;;;;;;;20.07;86.13;102130.81;6080445;29;20243;-71
2023/08/17 07:55:20;;;;;;;2.13;0.90;;;;;;;20.41;84.16;102128.88;6077923;29;20240;-70
2023/08/17 07:58:41;;;;;;;3.17;1.40;;;;;;;20.21;84.15;102132.97;6075727;29;20228;-71
2023/08/17 08:02:02;;;;;;;6.82;5.00;;;;;;;20.22;85.64;102120.09;6081171;29;20240;-71
2023/08/17 08:05:23;;;;;;;6.32;5.72;;;;;;;20.41;85.77;102130.75;6071612;29;20232;-68
2023/08/17 08:08:45;;;;;;;2.65;2.45;;;;;;;20.21;85.44;102135.69;6060893;29;20268;-69
2023/08/17 08:12:08;;;;;;;7.63;7.00;;;;;;;20.11;87.06;102134.09;6070075;29;20627;-67
2023/08/17 08:15:29;;;;;;;3.80;3.20;;;;;;;20.06;87.72;102137.34;6055229;29;20324;-66
2023/08/17 08:18:49;;;;;;;3.08;2.75;;;;;;;19.98;88.78;102140.06;6071613;29;20233;-66
2023/08/17 08:22:11;;;;;;;2.47;2.28;;;;;;;19.92;89.07;102136.06;6085257;29;20237;-65
2023/08/17 08:25:33;;;;;;;2.78;1.55;;;;;;;19.91;89.42;102141.72;6061844;29;20232;-67
2023/08/17 08:28:53;;;;;;;3.45;2.20;;;;;;;19.72;89.33;102134.66;6074591;29;20251;-66
2023/08/17 08:32:14;;;;;;;5.75;5.22;;;;;;;19.73;88.78;102146.47;6081031;29;20241;-66
2023/08/17 08:35:35;;;;;;;2.22;1.95;;;;;;;19.61;87.47;102153.25;6074928;29;20803;-67
2023/08/17 08:38:56;;;;;;;1.75;1.65;;;;;;;19.68;87.44;102146.94;6064891;29;20237;-67
2023/08/17 08:42:18;;;;;;;1.63;1.52;;;;;;;19.73;86.28;102143.72;6080952;29;20245;-67
2023/08/17 08:45:44;;;;;;;2.17;1.10;;;;;;;20.05;85.40;102141.09;6095404;29;20548;-67
2023/08/17 08:49:07;;;;;;;1.45;1.30;;;;;;;19.92;83.56;102136.06;6074264;29;20531;-66
2023/08/17 08:52:33;;;;;;;2.20;1.98;;;;;;;19.80;83.57;102140.16;6080216;29;20411;-67
2023/08/17 08:55:57;;;;;;;2.17;2.05;;;;;;;19.90;84.36;102129.91;6082603;29;20611;-67
2023/08/17 08:59:22;;;;;;;1.58;1.48;;;;;;;20.09;84.27;102117.00;6074320;29;20260;-67
2023/08/17 09:02:43;;;;;;;1.40;1.30;;;;;;;20.17;83.55;102112.34;6075876;29;20323;-67
2023/08/17 09:06:05;;;;;;;1.92;1.73;;;;;;;20.19;82.91;102102.13;6086377;29;20769;-66
2023/08/17 09:09:26;;;;;;;0.75;0.75;;;;;;;20.26;82.85;102103.16;6070770;29;20241;-68
2023/08/17 09:12:48;;;;;;;1.88;1.33;;;;;;;20.18;83.59;102099.53;6070714;29;20233;-67
2023/08/17 09:16:10;;;;;;;1.55;1.33;;;;;;;20.18;83.26;102105.88;6080729;29;20612;-67
2023/08/17 09:19:32;;;;;;;1.88;1.30;;;;;;;20.15;82.88;102102.63;6070483;29;20315;-66
2023/08/17 09:22:53;;;;;;;5.50;2.30;;;;;;;20.38;82.55;102103.72;6081078;29;20236;-67
2023/08/17 09:26:14;;;;;;;1.90;1.80;;;;;;;20.53;82.35;102102.84;6085425;29;20241;-66
2023/08/17 09:29:38;;;;;;;1.45;1.30;;;;;;;20.47;82.12;102098.06;6068870;29;20522;-67
2023/08/17 09:33:02;;;;;;;2.22;0.90;;;;;;;20.72;81.71;102098.91;6074783;29;20228;-67
2023/08/17 09:36:27;;;;;;;1.60;1.48;;;;;;;20.80;80.35;102098.06;6081371;29;20249;-67
2023/08/17 09:39:48;;;;;;;2.42;1.63;;;;;;;20.83;80.47;102094.97;6060202;29;20611;-67
2023/08/17 09:43:10;;;;;;;2.28;1.23;;;;;;;20.88;80.57;102107.09;6073893;29;20248;-66
2023/08/17 09:46:31;;;;;;;1.90;1.42;;;;;;;20.67;80.81;102096.69;6073319;29;20236;-67
2023/08/17 09:49:55;;;;;;;2.33;1.70;;;;;;;20.73;81.05;102097.03;6070164;29;20289;-67
2023/08/17 09:53:18;;;;;;;1.65;1.33;;;;;;;20.75;80.90;102090.34;6067820;29;20324;-66
2023/08/17 09:56:40;;;;;;;1.92;1.40;;;;;;;20.70;79.94;102082.63;6081402;29;20256;-66
2023/08/17 10:00:01;;;;;;;1.45;1.17;;;;;;;20.44;79.91;102073.72;6058951;29;20355;-67
2023/08/17 10:03:23;;;;;;;1.05;1.02;;;;;;;20.51;80.35;102080.25;6061806;29;20244;-67
2023/08/17 10:06:49;;;;;;;0.88;0.88;;;;;;;20.29;79.99;102072.72;6075584;29;20331;-67
2023/08/17 10:10:10;;;;;;;0.88;0.88;;;;;;;20.38;80.75;102079.88;6059970;29;20304;-67
2023/08/17 10:13:38;;;;;;;4.15;1.85;;;;;;;20.48;80.95;102083.34;6069457;29;20236;-66
2023/08/17 10:17:02;;;;;;;3.67;1.20;;;;;;;20.52;80.94;102072.88;6081542;29;20297;-67
2023/08/17 10:20:25;;;;;;;1.90;1.30;;;;;;;20.59;80.07;102076.63;6066463;29;20228;-67
2023/08/17 10:23:48;;;;;;;0.95;0.95;;;;;;;20.41;79.92;102081.44;6066696;29;20260;-67
2023/08/17 10:27:10;;;;;;;1.00;1.00;;;;;;;20.41;78.86;102084.19;6088039;29;20232;-67
2023/08/17 10:30:32;;;;;;;1.75;1.00;;;;;;;20.21;79.61;102096.50;6056404;29;20643;-67
2023/08/17 10:33:53;;;;;;;2.10;1.50;;;;;;;20.25;79.79;102096.00;6066045;29;20233;-66
2023/08/17 10:37:15;;;;;;;3.80;1.95;;;;;;;20.48;79.92;102087.97;6082655;29;20323;-66
2023/08/17 10:40:38;;;;;;;1.67;1.58;;;;;;;20.65;79.75;102079.53;6074293;29;20237;-67
2023/08/17 10:44:00;;;;;;;1.05;0.88;;;;;;;20.69;79.51;102080.91;6068454;29;20228;-67
2023/08/17 10:47:23;;;;;;;1.52;1.05;;;;;;;20.81;78.69;102080.56;6078968;29;20236;-66
2023/08/17 10:50:59;;;;;;;1.80;1.65;;;;;;;20.81;79.73;102081.44;6077045;29;20228;-67
2023/08/17 10:54:37;;;;;;;1.83;1.60;;;;;;;20.63;80.17;102087.09;6054799;29;20327;-73
2023/08/17 10:57:59;;;;;;;1.35;1.25;;;;;;;20.67;80.44;102098.59;6065166;29;20257;-72
2023/08/17 11:01:32;;;;;;;2.97;1.73;;;;;;;20.43;81.15;102093.94;6079631;29;20315;-72
2023/08/17 11:04:54;;;;;;;2.05;1.63;;;;;;;20.24;82.47;102097.00;6067970;29;20403;-72
2023/08/17 11:08:22;;;;;;;2.10;1.40;;;;;;;20.12;82.17;102095.59;6069707;29;20540;-72
2023/08/17 11:11:43;;;;;;;1.80;1.70;;;;;;;19.97;83.08;102105.47;6076712;29;20513;-74
2023/08/17 11:15:06;;;;;;;1.42;1.33;;;;;;;19.52;84.58;102121.41;6077086;29;20262;-73
2023/08/17 11:18:27;;;;;;;2.70;1.52;;;;;;;19.41;85.75;102140.81;6072639;29;20231;-72
2023/08/17 11:21:48;;;;;;;2.53;1.30;;;;;;;19.47;86.00;102142.91;6072743;29;20247;-72
2023/08/17 11:25:09;;;;;;;1.38;1.27;;;;;;;19.62;85.97;102133.94;6067288;29;20281;-69
2023/08/17 11:28:33;;;;;;;2.08;1.15;;;;;;;19.71;85.66;102124.72;6052308;29;20236;-70
2023/08/17 11:31:55;;;;;;;2.00;1.63;;;;;;;19.89;85.19;102121.88;6078987;29;20240;-71
2023/08/17 11:35:16;;;;;;;2.10;1.58;;;;;;;19.69;85.38;102129.50;6076761;29;22390;-71
2023/08/17 11:38:38;;;;;;;1.30;1.20;;;;;;;19.57;85.99;102110.78;6053421;29;21036;-71
2023/08/17 11:41:59;;;;;;;2.28;1.73;;;;;;;19.85;86.21;102109.56;6075024;29;20236;-71
2023/08/17 11:45:20;;;;;;;4.43;1.52;;;;;;;19.97;86.11;102104.59;6064622;29;20610;-70
2023/08/17 11:48:43;;;;;;;2.67;1.17;;;;;;;20.15;85.55;102097.97;6069780;29;20237;-69
2023/08/17 11:52:05;;;;;;;2.35;1.40;;;;;;;20.30;85.01;102098.19;6079778;29;20238;-71
2023/08/17 11:55:26;;;;;;;2.13;1.75;;;;;;;20.54;85.21;102082.66;6067352;29;20764;-71
2023/08/17 11:58:47;;;;;;;3.63;1.73;;;;;;;20.45;85.41;102083.66;6069064;29;20241;-70
2023/08/17 12:02:08;;;;;;;4.30;3.60;;;;;;;20.27;86.20;102088.47;6068740;29;20244;-70
2023/08/17 12:05:32;;;;;;;9.43;8.52;;;;;;;20.28;87.07;102103.00;6082962;29;20244;-70
2023/08/17 12:08:54;;;;;;;3.08;1.90;;;;;;;19.86;87.43;102122.19;6074612;29;20230;-69
2023/08/17 12:12:18;;;;;;;5.75;2.13;;;;;;;20.13;88.73;102123.84;6087044;29;20241;-69
2023/08/17 12:15:40;;;;;;;3.83;1.77;;;;;;;20.08;88.93;102131.69;6083866;29;20232;-69
2023/08/17 12:19:00;;;;;;;1.63;1.50;;;;;;;19.98;89.53;102136.44;6044928;29;20599;-69
2023/08/17 12:22:26;;;;;;;2.30;2.10;;;;;;;20.17;89.29;102125.22;6075458;29;20316;-70
2023/08/17 12:25:52;;;;;;;3.33;2.50;;;;;;;20.37;89.13;102116.53;6082625;29;20587;-73
2023/08/17 12:29:14;;;;;;;5.13;2.10;;;;;;;20.47;88.25;102100.78;6070308;29;20241;-72
2023/08/17 12:32:35;;;;;;;3.15;2.03;;;;;;;20.55;87.56;102091.72;6078343;29;20228;-75
2023/08/17 12:35:55;;;;;;;3.20;1.63;;;;;;;20.26;88.54;102100.44;6080993;29;20236;-68
2023/08/17 12:39:18;;;;;;;2.15;1.95;;;;;;;20.58;88.54;102085.91;6066588;29;21478;-68
2023/08/17 12:42:38;;;;;;;3.40;2.03;;;;;;;20.72;88.01;102098.91;6073435;29;20232;-68
2023/08/17 12:45:59;;;;;;;2.45;1.95;;;;;;;20.83;87.45;102100.44;6075488;29;20244;-67
2023/08/17 12:49:20;;;;;;;3.03;1.77;;;;;;;20.59;87.63;102104.91;6070887;29;20261;-68
2023/08/17 12:52:41;;;;;;;1.42;1.25;;;;;;;20.58;87.32;102110.56;6070019;29;20232;-68
2023/08/17 12:56:05;;;;;;;1.30;1.17;;;;;;;20.31;87.97;102116.38;6073915;29;20228;-68
2023/08/17 12:59:26;;;;;;;3.50;1.63;;;;;;;20.49;88.16;102115.19;6060164;29;20236;-68
2023/08/17 13:02:49;;;;;;;2.55;1.95;;;;;;;20.58;87.92;102107.81;6069056;29;20264;-68
2023/08/17 13:06:09;;;;;;;1.55;1.20;;;;;;;20.41;87.92;102112.44;6064298;29;20245;-67
2023/08/17 13:09:30;;;;;;;2.15;1.65;;;;;;;20.31;88.22;102117.22;6062043;29;20236;-67
2023/08/17 13:12:54;;;;;;;2.30;1.63;;;;;;;20.34;87.23;102113.31;6065159;29;20233;-66
2023/08/17 13:16:15;;;;;;;1.95;1.35;;;;;;;20.05;86.50;102119.19;6075246;29;20318;-67
2023/08/17 13:19:37;;;;;;;2.75;1.42;;;;;;;19.77;85.88;102115.00;6061662;29;20244;-69
2023/08/17 13:22:58;;;;;;;1.17;1.08;;;;;;;19.95;84.79;102121.22;6067900;29;20240;-66
2023/08/17 13:26:19;;;;;;;2.40;1.05;;;;;;;19.95;82.30;102126.69;6082491;29;20606;-66
2023/08/17 13:29:41;;;;;;;1.35;0.95;;;;;;;19.82;81.40;102118.94;6074586;29;20233;-66
2023/08/17 13:33:02;;;;;;;0.95;0.80;;;;;;;20.07;81.28;102091.66;6067769;29;20253;-66
2023/08/17 13:36:23;;;;;;;1.88;1.70;;;;;;;20.38;81.00;102079.06;6076796;29;20237;-68
2023/08/17 13:39:45;;;;;;;1.25;0.98;;;;;;;20.65;79.84;102079.53;6070742;29;20340;-68
2023/08/17 13:43:11;;;;;;;0.77;0.77;;;;;;;20.90;78.63;102077.66;6072450;29;20233;-67
2023/08/17 13:46:34;;;;;;;1.33;1.20;;;;;;;21.51;77.29;102076.97;6079532;29;20326;-68
2023/08/17 13:49:56;;;;;;;0.85;0.82;;;;;;;21.81;76.00;102083.53;6062938;29;20237;-67
2023/08/17 13:53:16;;;;;;;3.03;2.00;;;;;;;22.06;75.51;102082.38;6080599;29;20336;-67
2023/08/17 13:56:37;;;;;;;4.85;4.40;;;;;;;22.04;74.47;102078.97;6077663;29;20795;-67
2023/08/17 13:59:58;;;;;;;2.78;2.58;;;;;;;21.76;74.84;102085.97;6071813;29;20620;-67
2023/08/17 14:03:20;;;;;;;1.38;1.27;;;;;;;21.34;75.96;102080.84;6067727;29;20244;-68
2023/08/17 14:06:42;;;;;;;2.22;2.03;;;;;;;21.16;77.57;102085.66;6079204;29;20245;-67
2023/08/17 14:10:03;;;;;;;6.20;1.30;;;;;;;20.95;78.61;102085.34;6070180;29;20611;-66
2023/08/17 14:13:24;;;;;;;0.98;0.98;;;;;;;20.73;78.92;102078.69;6076619;29;20324;-68
2023/08/17 14:16:45;;;;;;;0.85;0.85;;;;;;;20.80;79.56;102062.44;6078919;29;20231;-68
2023/08/17 14:20:08;;;;;;;1.23;1.08;;;;;;;20.90;79.33;102065.84;6060484;29;20608;-66
2023/08/17 14:23:29;;;;;;;1.88;1.30;;;;;;;20.80;79.81;102062.44;6067630;29;20595;-68
2023/08/17 14:26:50;;;;;;;1.38;1.27;;;;;;;20.69;80.58;102056.25;6070628;29;20240;-67
2023/08/17 14:30:12;;;;;;;1.20;1.10;;;;;;;20.73;80.56;102057.59;6049998;29;21773;-67
2023/08/17 14:33:33;;;;;;;1.58;0.82;;;;;;;20.78;80.77;102050.78;6069633;29;20285;-67
2023/08/17 14:36:55;;;;;;;1.23;1.08;;;;;;;20.62;81.19;102047.03;6074540;29;20229;-68
2023/08/17 14:40:17;;;;;;;1.85;1.13;;;;;;;20.67;81.17;102050.06;6061903;29;20228;-68
2023/08/17 14:43:38;;;;;;;0.98;0.95;;;;;;;20.79;81.31;102045.13;6049291;29;20478;-67
2023/08/17 14:46:58;;;;;;;1.75;1.02;;;;;;;20.75;80.80;102043.75;6072037;29;20241;-68
2023/08/17 14:50:19;;;;;;;1.70;1.58;;;;;;;20.65;81.38;102043.91;6052277;29;20237;-68
2023/08/17 14:53:41;;;;;;;1.08;0.80;;;;;;;20.75;81.50;102040.16;6066259;29;20228;-69
2023/08/17 14:57:02;;;;;;;1.15;0.88;;;;;;;20.79;81.61;102036.88;6069342;29;20738;-67
2023/08/17 15:00:23;;;;;;;1.38;1.15;;;;;;;20.83;81.32;102030.03;6061026;29;20533;-68
2023/08/17 15:03:44;;;;;;;1.38;0.93;;;;;;;20.62;82.02;102027.84;6062675;29;20228;-68
2023/08/17 15:07:10;;;;;;;1.58;0.80;;;;;;;20.66;82.84;102023.72;6060131;29;20241;-68
2023/08/17 15:10:32;;;;;;;2.75;1.05;;;;;;;20.77;82.32;102013.41;6063656;29;20576;-68
2023/08/17 15:13:53;;;;;;;1.00;0.73;;;;;;;20.60;82.66;102007.97;6072830;29;20236;-67
2023/08/17 15:17:14;;;;;;;1.23;1.13;;;;;;;20.64;82.84;102000.25;6073435;29;20233;-68
2023/08/17 15:20:35;;;;;;;5.38;1.00;;;;;;;20.67;82.88;101997.19;6078981;29;20224;-68
2023/08/17 15:23:56;;;;;;;1.05;0.95;;;;;;;20.52;83.02;101998.91;6077900;29;20537;-69
2023/08/17 15:27:18;;;;;;;0.80;0.80;;;;;;;20.40;83.38;102006.59;6091378;29;20243;-69
2023/08/17 15:30:39;;;;;;;2.67;1.55;;;;;;;20.56;83.47;102011.22;6072866;29;20506;-68
2023/08/17 15:34:00;;;;;;;0.90;0.90;;;;;;;20.57;83.04;101997.34;6074377;29;20230;-68
2023/08/17 15:37:21;;;;;;;0.73;0.65;;;;;;;20.49;82.45;101996.50;6078045;29;20370;-68